Time;durP1;ratioP1;P1;durP2;ratioP2;P2;SDS_P1;SDS_P2;PMS_P1;PMS_P2;Temp;Humidity;BMP_temperature;BMP_pressure;BME280_temperature;BME280_humidity;BME280_pressure;Samples;Min_cycle;Max_cycle;Signal;HPM_P1;HPM_P2
2023/05/03 00:01:25;;;;;;;6.15;2.70;;;6.50;99.90;;;;;;5115096;28;20471;-61
2023/05/03 00:03:52;;;;;;;3.92;3.17;;;6.50;99.90;;;;;;5097094;28;20364;-61
2023/05/03 00:06:18;;;;;;;5.63;2.95;;;6.50;99.90;;;;;;5115313;28;20044;-62
2023/05/03 00:08:44;;;;;;;6.53;3.88;;;6.50;99.90;;;;;;5097018;28;20055;-61
2023/05/03 00:11:11;;;;;;;6.50;2.90;;;6.50;99.90;;;;;;5115189;28;20059;-62
2023/05/03 00:13:37;;;;;;;7.18;2.67;;;6.40;99.90;;;;;;5096603;28;20116;-61
2023/05/03 00:16:03;;;;;;;5.75;3.17;;;6.40;99.90;;;;;;5115317;28;20047;-61
2023/05/03 00:18:30;;;;;;;4.53;2.58;;;6.30;99.90;;;;;;5114965;28;20384;-62
2023/05/03 00:21:00;;;;;;;3.75;2.72;;;6.30;99.90;;;;;;5096635;28;20047;-61
2023/05/03 00:23:27;;;;;;;7.43;2.70;;;6.30;99.90;;;;;;5114406;28;20058;-62
2023/05/03 00:25:54;;;;;;;5.40;2.67;;;6.30;99.90;;;;;;5114875;28;20039;-61
2023/05/03 00:28:21;;;;;;;3.53;2.45;;;6.30;99.90;;;;;;5115020;28;20040;-61
2023/05/03 00:30:48;;;;;;;6.75;3.42;;;6.30;99.90;;;;;;5114815;28;20378;-61
2023/05/03 00:33:18;;;;;;;4.82;2.75;;;6.30;99.90;;;;;;5114308;28;20063;-61
2023/05/03 00:35:44;;;;;;;4.88;3.28;;;6.20;99.90;;;;;;5096522;28;20051;-61
2023/05/03 00:38:13;;;;;;;5.45;2.90;;;6.20;99.90;;;;;;5114695;28;20401;-62
2023/05/03 00:40:39;;;;;;;6.03;3.15;;;6.20;99.90;;;;;;5114740;28;20363;-61
2023/05/03 00:43:06;;;;;;;6.38;3.10;;;6.20;99.90;;;;;;5113951;28;20051;-61
2023/05/03 00:45:33;;;;;;;4.93;2.83;;;6.20;99.90;;;;;;5114603;28;20056;-61
2023/05/03 00:48:00;;;;;;;6.70;3.03;;;6.20;99.90;;;;;;5114612;28;20451;-61
2023/05/03 00:50:27;;;;;;;5.47;3.17;;;6.10;99.90;;;;;;5114191;28;20120;-62
2023/05/03 00:52:53;;;;;;;4.75;2.80;;;6.10;99.90;;;;;;5113953;28;20363;-61
2023/05/03 00:55:20;;;;;;;7.20;3.75;;;6.10;99.90;;;;;;5114191;28;20480;-62
2023/05/03 00:57:46;;;;;;;3.88;2.92;;;6.10;99.90;;;;;;5114596;28;20101;-61
2023/05/03 01:00:13;;;;;;;5.70;3.08;;;6.10;99.90;;;;;;5114429;28;20048;-62
2023/05/03 01:02:39;;;;;;;5.97;3.00;;;6.10;99.90;;;;;;5113270;28;20505;-62
2023/05/03 01:05:06;;;;;;;3.72;2.47;;;6.00;99.90;;;;;;5113926;28;20047;-61
2023/05/03 01:08:06;;;;;;;6.85;2.63;;;6.00;99.90;;;;;;5114630;28;20044;-61
2023/05/03 01:10:50;;;;;;;4.20;2.72;;;6.00;99.90;;;;;;5114339;28;20363;-62
2023/05/03 01:13:41;;;;;;;5.75;3.05;;;5.90;99.90;;;;;;5113454;28;20047;-62
2023/05/03 01:16:29;;;;;;;6.03;2.92;;;5.80;99.90;;;;;;5113958;28;20433;-62
2023/05/03 01:19:00;;;;;;;7.60;3.03;;;5.80;99.90;;;;;;5114306;28;20059;-61
2023/05/03 01:21:28;;;;;;;4.88;2.90;;;5.80;99.90;;;;;;5113321;28;20048;-61
2023/05/03 01:24:07;;;;;;;8.52;3.60;;;5.70;99.90;;;;;;5113522;28;20043;-62
2023/05/03 01:26:33;;;;;;;4.45;3.15;;;5.70;99.90;;;;;;5096174;28;20051;-61
2023/05/03 01:28:59;;;;;;;6.95;2.85;;;5.70;99.90;;;;;;5113862;28;20069;-62
2023/05/03 01:31:33;;;;;;;5.05;2.70;;;5.70;99.90;;;;;;5113608;28;20473;-61
2023/05/03 01:34:11;;;;;;;4.88;3.10;;;5.70;99.90;;;;;;5113708;28;20367;-61
2023/05/03 01:36:42;;;;;;;4.47;2.58;;;5.60;99.90;;;;;;5114020;28;20052;-61
2023/05/03 01:39:34;;;;;;;4.72;2.63;;;5.60;99.90;;;;;;5113794;28;20092;-61
2023/05/03 01:42:02;;;;;;;5.90;2.83;;;5.60;99.90;;;;;;5113697;28;20089;-61
2023/05/03 01:44:30;;;;;;;6.35;2.75;;;5.60;99.90;;;;;;5113276;28;20363;-61
2023/05/03 01:46:56;;;;;;;6.63;3.13;;;5.60;99.90;;;;;;5113707;28;20063;-61
2023/05/03 01:49:22;;;;;;;5.13;2.70;;;5.50;99.90;;;;;;5113501;28;20081;-61
2023/05/03 01:51:49;;;;;;;7.55;3.83;;;5.50;99.90;;;;;;5095571;28;20055;-61
2023/05/03 01:54:15;;;;;;;7.38;2.83;;;5.40;99.90;;;;;;5113234;28;20120;-61
2023/05/03 01:56:41;;;;;;;4.43;3.10;;;5.40;99.90;;;;;;5095802;28;20051;-61
2023/05/03 01:59:07;;;;;;;5.28;2.85;;;5.40;99.90;;;;;;5095512;28;20112;-62
2023/05/03 02:01:34;;;;;;;4.18;2.55;;;5.40;99.90;;;;;;5113476;28;20421;-61
2023/05/03 02:04:00;;;;;;;4.65;2.70;;;5.50;99.90;;;;;;5112950;28;20518;-61
2023/05/03 02:06:26;;;;;;;4.10;2.90;;;5.50;99.90;;;;;;5113541;28;20051;-62
2023/05/03 02:08:53;;;;;;;5.95;2.67;;;5.40;99.90;;;;;;5113689;28;20048;-61
2023/05/03 02:11:20;;;;;;;4.70;3.05;;;5.40;99.90;;;;;;5095549;28;20452;-61
2023/05/03 02:13:48;;;;;;;7.32;3.42;;;5.40;99.90;;;;;;5112984;28;20043;-61
2023/05/03 02:16:14;;;;;;;8.80;3.28;;;5.40;99.90;;;;;;5096968;28;20055;-62
2023/05/03 02:18:40;;;;;;;5.80;3.78;;;5.40;99.90;;;;;;5117528;28;20116;-61
2023/05/03 02:21:08;;;;;;;6.30;3.15;;;5.40;99.90;;;;;;5117172;28;20044;-61
2023/05/03 02:23:35;;;;;;;5.50;3.95;;;5.40;99.90;;;;;;5116687;28;20109;-61
2023/05/03 02:26:01;;;;;;;7.82;3.70;;;5.40;99.90;;;;;;5117363;28;20138;-62
2023/05/03 02:28:28;;;;;;;4.90;3.28;;;5.40;99.90;;;;;;5117570;28;20104;-62
2023/05/03 02:30:54;;;;;;;4.45;3.33;;;5.40;99.90;;;;;;5117171;28;20060;-61
2023/05/03 02:33:21;;;;;;;5.80;3.20;;;5.40;99.90;;;;;;5116456;28;20379;-61
2023/05/03 02:35:47;;;;;;;4.82;3.53;;;5.40;99.90;;;;;;5116928;28;20062;-61
2023/05/03 02:38:13;;;;;;;6.75;2.97;;;5.40;99.90;;;;;;5098998;28;20425;-61
2023/05/03 02:40:39;;;;;;;6.63;3.40;;;5.40;99.90;;;;;;5117073;28;20055;-61
2023/05/03 02:43:06;;;;;;;3.85;3.05;;;5.30;99.90;;;;;;5116476;28;20100;-62
2023/05/03 02:45:35;;;;;;;6.55;3.15;;;5.30;99.90;;;;;;5117380;28;20055;-62
2023/05/03 02:48:02;;;;;;;3.97;3.15;;;5.30;99.90;;;;;;5117022;28;20047;-62
2023/05/03 02:50:28;;;;;;;8.23;2.85;;;5.30;99.90;;;;;;5098943;28;20055;-61
2023/05/03 02:52:54;;;;;;;6.03;3.63;;;5.30;99.90;;;;;;5116072;28;20048;-61
2023/05/03 02:55:21;;;;;;;5.28;3.33;;;5.30;99.90;;;;;;5116795;28;20112;-61
2023/05/03 02:57:47;;;;;;;3.97;3.45;;;5.30;99.90;;;;;;5098727;28;20376;-61
2023/05/03 03:00:14;;;;;;;6.30;4.30;;;5.30;99.90;;;;;;5116534;28;20058;-61
2023/05/03 03:02:40;;;;;;;4.05;3.13;;;5.30;99.90;;;;;;5115897;28;20043;-61
2023/05/03 03:05:10;;;;;;;6.53;4.25;;;5.30;99.90;;;;;;5116751;28;20039;-62
2023/05/03 03:07:40;;;;;;;5.03;3.50;;;5.20;99.90;;;;;;5116546;28;20040;-62
2023/05/03 03:10:07;;;;;;;4.50;3.45;;;5.20;99.90;;;;;;5116766;28;20055;-62
2023/05/03 03:12:35;;;;;;;5.45;3.70;;;5.20;99.90;;;;;;5098149;28;20043;-61
2023/05/03 03:15:02;;;;;;;6.93;3.20;;;5.10;99.90;;;;;;5116232;28;20460;-62
2023/05/03 03:17:30;;;;;;;6.32;3.30;;;5.10;99.90;;;;;;5116610;28;20047;-61
2023/05/03 03:19:57;;;;;;;6.28;4.68;;;5.00;99.90;;;;;;5115989;28;20367;-61
2023/05/03 03:22:24;;;;;;;6.18;3.60;;;5.00;99.90;;;;;;5115333;28;20455;-61
2023/05/03 03:24:51;;;;;;;4.63;3.53;;;5.00;99.90;;;;;;5116260;28;20126;-61
2023/05/03 03:27:17;;;;;;;5.28;3.78;;;4.90;99.90;;;;;;5115102;28;20051;-61
2023/05/03 03:29:43;;;;;;;6.50;3.75;;;4.90;99.90;;;;;;5116413;28;20039;-61
2023/05/03 03:32:09;;;;;;;5.60;3.80;;;4.80;99.90;;;;;;5115490;28;20039;-61
2023/05/03 03:34:36;;;;;;;5.13;3.58;;;4.80;99.90;;;;;;5115708;28;20418;-61
2023/05/03 03:37:02;;;;;;;5.20;3.33;;;4.80;99.90;;;;;;5098432;28;20460;-61
2023/05/03 03:39:28;;;;;;;7.05;3.83;;;4.80;99.90;;;;;;5116014;28;20048;-61
2023/05/03 03:41:54;;;;;;;5.63;3.40;;;4.80;99.90;;;;;;5115496;28;20047;-61
2023/05/03 03:44:21;;;;;;;6.03;4.03;;;4.80;99.90;;;;;;5115089;28;20353;-61
2023/05/03 03:46:47;;;;;;;5.82;4.35;;;4.80;99.90;;;;;;5115813;28;20367;-61
2023/05/03 03:49:13;;;;;;;5.25;4.20;;;4.80;99.90;;;;;;5115847;28;20051;-59
2023/05/03 03:51:39;;;;;;;4.53;3.50;;;4.80;99.90;;;;;;5115386;28;20051;-61
2023/05/03 03:54:05;;;;;;;4.63;3.78;;;4.80;99.90;;;;;;5115145;28;20051;-62
2023/05/03 03:56:32;;;;;;;5.07;3.78;;;4.80;99.90;;;;;;5097882;28;20063;-61
2023/05/03 03:58:58;;;;;;;6.05;3.65;;;4.80;99.90;;;;;;5115560;28;20105;-61
2023/05/03 04:01:24;;;;;;;3.67;3.22;;;4.80;99.90;;;;;;5115532;28;20124;-60
2023/05/03 04:03:51;;;;;;;4.43;3.25;;;4.80;99.90;;;;;;5096799;28;20059;-60
2023/05/03 04:06:17;;;;;;;7.85;3.78;;;4.80;99.90;;;;;;5115237;28;20058;-61
2023/05/03 04:08:57;;;;;;;4.78;3.17;;;4.70;99.90;;;;;;5097157;28;20058;-60
2023/05/03 04:11:23;;;;;;;5.13;2.92;;;4.70;99.90;;;;;;5115349;28;20059;-61
2023/05/03 04:13:50;;;;;;;6.82;3.30;;;4.60;99.90;;;;;;5076120;28;20368;-60
2023/05/03 04:16:16;;;;;;;4.53;3.63;;;4.50;99.90;;;;;;5077134;28;20052;-60
2023/05/03 04:18:42;;;;;;;7.32;4.15;;;4.60;99.90;;;;;;5094875;28;20091;-60
2023/05/03 04:21:09;;;;;;;6.70;4.43;;;4.70;99.90;;;;;;5094624;28;20361;-61
2023/05/03 04:23:35;;;;;;;6.25;3.40;;;4.70;99.90;;;;;;5112218;28;20471;-60
2023/05/03 04:26:01;;;;;;;6.78;3.95;;;4.80;99.90;;;;;;5114789;28;20077;-60
2023/05/03 04:28:28;;;;;;;8.68;4.03;;;4.80;99.90;;;;;;5115048;28;20104;-61
2023/05/03 04:30:57;;;;;;;4.45;3.40;;;4.80;99.90;;;;;;5115010;28;20138;-61
2023/05/03 04:33:25;;;;;;;6.57;3.80;;;4.80;99.90;;;;;;5114533;28;20058;-62
2023/05/03 04:35:52;;;;;;;5.72;3.60;;;4.80;99.90;;;;;;5097068;28;20418;-60
2023/05/03 04:38:18;;;;;;;5.18;3.55;;;5.10;99.90;;;;;;5096185;28;20116;-61
2023/05/03 04:40:45;;;;;;;4.97;3.42;;;5.40;99.90;;;;;;5115106;28;20055;-61
2023/05/03 04:43:11;;;;;;;4.72;3.58;;;5.70;99.90;;;;;;5114241;28;20044;-61
2023/05/03 04:45:38;;;;;;;5.57;3.95;;;6.20;99.90;;;;;;5114204;28;20085;-60
2023/05/03 04:48:05;;;;;;;6.38;3.90;;;6.90;99.90;;;;;;5114457;28;20375;-62
2023/05/03 04:50:32;;;;;;;6.22;3.95;;;7.40;99.90;;;;;;5114602;28;20047;-61
2023/05/03 04:52:58;;;;;;;4.05;3.40;;;7.90;99.90;;;;;;5114122;28;20088;-61
2023/05/03 04:55:25;;;;;;;7.00;3.45;;;8.50;99.90;;;;;;5114599;28;20052;-61
2023/05/03 04:57:51;;;;;;;5.05;3.33;;;9.00;99.90;;;;;;5095703;28;20082;-61
2023/05/03 05:00:17;;;;;;;5.38;3.05;;;9.60;99.90;;;;;;5095694;28;20051;-59
2023/05/03 05:02:44;;;;;;;6.93;4.18;;;10.20;99.90;;;;;;5112833;28;20317;-61
2023/05/03 05:05:10;;;;;;;5.97;3.95;;;10.80;99.90;;;;;;5113707;28;20036;-61
2023/05/03 05:07:36;;;;;;;3.58;2.97;;;11.20;99.90;;;;;;5118809;27;20471;-61
2023/05/03 05:10:03;;;;;;;5.20;3.45;;;11.70;99.90;;;;;;5105505;27;20082;-61
2023/05/03 05:12:29;;;;;;;6.45;3.42;;;12.10;99.90;;;;;;5121969;27;20039;-61
2023/05/03 05:14:56;;;;;;;5.85;3.38;;;12.50;99.90;;;;;;5123513;27;20043;-61
2023/05/03 05:17:25;;;;;;;5.25;2.88;;;12.80;99.90;;;;;;5124814;27;20044;-63
2023/05/03 05:19:51;;;;;;;4.10;3.67;;;13.00;99.90;;;;;;5113768;28;20048;-61
2023/05/03 05:22:18;;;;;;;7.18;4.15;;;12.80;99.90;;;;;;5094794;28;20387;-61
2023/05/03 05:24:44;;;;;;;4.75;3.25;;;12.80;99.90;;;;;;5114107;28;20052;-62
2023/05/03 05:27:11;;;;;;;7.32;3.90;;;12.60;99.90;;;;;;5113652;28;20043;-61
2023/05/03 05:29:37;;;;;;;6.05;3.83;;;12.40;99.90;;;;;;5113909;28;20043;-61
2023/05/03 05:32:04;;;;;;;5.70;3.45;;;12.60;99.90;;;;;;5113647;28;20043;-62
2023/05/03 05:34:31;;;;;;;6.65;3.78;;;13.00;99.90;;;;;;5113958;28;20124;-62
2023/05/03 05:36:57;;;;;;;5.38;3.33;;;13.70;99.90;;;;;;5113683;28;20108;-61
2023/05/03 05:39:23;;;;;;;4.32;3.40;;;14.30;99.90;;;;;;5095787;28;20071;-61
2023/05/03 05:41:50;;;;;;;5.03;3.67;;;14.80;99.90;;;;;;5112900;28;20100;-62
2023/05/03 05:44:16;;;;;;;6.35;3.88;;;15.10;99.90;;;;;;5095586;28;20051;-61
2023/05/03 05:46:42;;;;;;;3.60;2.92;;;15.40;99.90;;;;;;5095738;28;20059;-61
2023/05/03 05:49:08;;;;;;;5.80;3.45;;;15.70;99.90;;;;;;5113645;28;20048;-62
2023/05/03 05:51:35;;;;;;;5.82;3.03;;;16.10;99.90;;;;;;5099589;28;20061;-62
2023/05/03 05:54:01;;;;;;;4.95;3.65;;;16.30;99.90;;;;;;5098826;28;20047;-61
2023/05/03 05:56:27;;;;;;;4.28;2.70;;;16.60;99.70;;;;;;5117990;28;20051;-61
2023/05/03 05:58:54;;;;;;;4.75;3.35;;;16.40;99.70;;;;;;5117885;28;20051;-62
2023/05/03 06:01:21;;;;;;;4.88;3.10;;;16.70;99.50;;;;;;5117803;28;20051;-62
2023/05/03 06:03:47;;;;;;;5.85;2.85;;;17.20;99.00;;;;;;5117136;28;20043;-61
2023/05/03 06:06:13;;;;;;;6.78;3.20;;;17.40;98.20;;;;;;5117263;28;20362;-62
2023/05/03 06:08:40;;;;;;;4.13;2.45;;;17.10;98.10;;;;;;5117645;28;20077;-62
2023/05/03 06:11:06;;;;;;;4.47;2.55;;;17.50;97.50;;;;;;5117392;28;20054;-62
2023/05/03 06:13:37;;;;;;;5.35;2.30;;;16.90;97.10;;;;;;5117167;28;20066;-61
2023/05/03 06:16:04;;;;;;;3.60;2.40;;;16.40;97.30;;;;;;5117936;28;20047;-62
2023/05/03 06:18:30;;;;;;;3.90;2.13;;;16.10;97.70;;;;;;5117533;28;20066;-61
2023/05/03 06:20:57;;;;;;;5.05;2.40;;;16.10;97.40;;;;;;5116939;28;20467;-62
2023/05/03 06:23:23;;;;;;;5.13;2.38;;;16.00;97.10;;;;;;5116797;28;20368;-62
2023/05/03 06:25:49;;;;;;;5.93;2.45;;;15.20;97.40;;;;;;5099184;28;20470;-62
2023/05/03 06:28:15;;;;;;;6.13;2.33;;;15.30;97.90;;;;;;5117571;28;20055;-62
2023/05/03 06:30:47;;;;;;;4.90;2.00;;;15.30;97.70;;;;;;5117275;28;20115;-62
2023/05/03 06:33:14;;;;;;;;;;;15.60;97.40;;;;;;5116630;28;20468;-62
2023/05/03 06:35:40;;;;;;;3.25;2.03;;;15.70;96.50;;;;;;5117271;28;19920;-61
2023/05/03 06:38:07;;;;;;;3.28;2.00;;;15.60;96.90;;;;;;5099140;28;20463;-61
2023/05/03 06:40:34;;;;;;;4.72;2.03;;;15.90;96.60;;;;;;5116973;28;20051;-62
2023/05/03 06:43:00;;;;;;;4.28;2.03;;;16.10;96.50;;;;;;5098473;28;20051;-62
2023/05/03 06:45:26;;;;;;;5.15;2.45;;;16.20;96.30;;;;;;5116982;28;20055;-62
2023/05/03 06:47:52;;;;;;;2.85;1.98;;;15.80;96.10;;;;;;5098871;28;20062;-62
2023/05/03 06:50:21;;;;;;;4.70;2.20;;;15.20;96.30;;;;;;5116803;28;20043;-62
2023/05/03 06:52:47;;;;;;;3.10;2.20;;;14.70;96.70;;;;;;5116232;28;20047;-62
2023/05/03 06:55:13;;;;;;;5.38;2.13;;;14.60;97.20;;;;;;5117135;28;20077;-61
2023/05/03 06:57:41;;;;;;;2.90;2.00;;;14.30;97.30;;;;;;5116762;28;20044;-62
2023/05/03 07:00:08;;;;;;;4.22;2.20;;;14.00;97.60;;;;;;5116814;28;20051;-62
2023/05/03 07:02:34;;;;;;;2.42;2.10;;;13.60;97.60;;;;;;5115035;28;20496;-61
2023/05/03 07:05:00;;;;;;;2.42;2.00;;;13.10;97.80;;;;;;5116962;28;20058;-62
2023/05/03 07:07:27;;;;;;;5.25;2.00;;;12.80;98.20;;;;;;5098668;28;20066;-61
2023/05/03 07:09:53;;;;;;;3.67;2.03;;;12.40;98.10;;;;;;5116103;28;20384;-61
2023/05/03 07:12:19;;;;;;;3.53;2.40;;;12.20;98.20;;;;;;5115819;28;20055;-61
2023/05/03 07:14:46;;;;;;;2.63;1.85;;;12.20;98.40;;;;;;5116616;28;20047;-61
2023/05/03 07:17:12;;;;;;;3.55;1.83;;;12.80;98.50;;;;;;5116482;28;20063;-61
2023/05/03 07:19:38;;;;;;;6.38;1.95;;;13.10;98.10;;;;;;5098225;28;20062;-61
2023/05/03 07:22:05;;;;;;;2.97;1.50;;;13.20;97.60;;;;;;5115427;28;20044;-62
2023/05/03 07:24:31;;;;;;;3.05;1.90;;;13.30;97.40;;;;;;5116511;28;20054;-61
2023/05/03 07:26:57;;;;;;;3.45;1.85;;;13.10;97.50;;;;;;5115675;28;20121;-61
2023/05/03 07:29:25;;;;;;;3.08;1.58;;;12.90;97.80;;;;;;5080876;28;20471;-61
2023/05/03 07:31:51;;;;;;;4.13;1.90;;;12.60;97.90;;;;;;5115182;28;20167;-61
2023/05/03 07:34:17;;;;;;;3.17;2.08;;;12.30;97.80;;;;;;5115819;28;20382;-61
2023/05/03 07:36:44;;;;;;;4.95;2.30;;;11.80;98.20;;;;;;5115659;28;20360;-61
2023/05/03 07:39:10;;;;;;;3.35;1.65;;;11.60;98.40;;;;;;5115994;28;20069;-61
2023/05/03 07:41:36;;;;;;;3.47;1.58;;;11.50;98.60;;;;;;5115240;28;20043;-62
2023/05/03 07:44:03;;;;;;;3.25;1.90;;;11.60;98.70;;;;;;5115868;28;20367;-61
2023/05/03 07:46:33;;;;;;;2.80;1.60;;;11.70;98.60;;;;;;5115747;28;20051;-61
2023/05/03 07:49:01;;;;;;;3.80;1.60;;;11.80;98.30;;;;;;5115327;28;20477;-62
2023/05/03 07:51:27;;;;;;;2.88;2.10;;;11.90;98.00;;;;;;5115639;28;20406;-62
2023/05/03 07:53:57;;;;;;;4.25;2.05;;;11.70;98.30;;;;;;5096614;28;20055;-62
2023/05/03 07:56:25;;;;;;;3.03;2.22;;;11.70;98.40;;;;;;5115710;28;20415;-61
2023/05/03 07:58:52;;;;;;;3.50;2.00;;;11.70;98.50;;;;;;5115646;28;20059;-61
2023/05/03 08:01:20;;;;;;;3.25;1.75;;;11.60;98.50;;;;;;5115149;28;20463;-61
2023/05/03 08:03:49;;;;;;;3.15;1.88;;;11.70;98.70;;;;;;5114715;28;20100;-61
2023/05/03 08:06:18;;;;;;;3.08;1.70;;;11.70;98.80;;;;;;5115049;28;20451;-62
2023/05/03 08:08:45;;;;;;;4.18;1.75;;;11.40;98.30;;;;;;5115363;28;20063;-62
2023/05/03 08:11:11;;;;;;;4.25;2.10;;;11.40;98.60;;;;;;5115725;28;20048;-62
2023/05/03 08:13:37;;;;;;;3.72;1.90;;;11.60;98.70;;;;;;5114428;28;20120;-61
2023/05/03 08:16:05;;;;;;;5.22;2.75;;;11.80;98.50;;;;;;5115338;28;20065;-61
2023/05/03 08:18:31;;;;;;;4.70;2.25;;;11.80;98.50;;;;;;5115228;28;20138;-62
2023/05/03 08:20:58;;;;;;;2.05;1.85;;;11.90;98.50;;;;;;5114564;28;20525;-61
2023/05/03 08:23:24;;;;;;;2.17;1.67;;;11.90;98.40;;;;;;5114525;28;20047;-61
2023/05/03 08:25:51;;;;;;;3.13;1.73;;;12.30;98.40;;;;;;5114738;28;20059;-61
2023/05/03 08:28:17;;;;;;;4.20;2.28;;;12.60;98.00;;;;;;5115271;28;20417;-61
2023/05/03 08:30:43;;;;;;;3.65;1.77;;;12.60;97.90;;;;;;5114661;28;20417;-61
2023/05/03 08:33:10;;;;;;;4.07;1.90;;;12.80;97.90;;;;;;5114159;28;20050;-61
2023/05/03 08:35:37;;;;;;;2.60;1.80;;;12.90;97.70;;;;;;5096630;28;20415;-62
2023/05/03 08:38:04;;;;;;;4.03;1.80;;;12.80;97.30;;;;;;5115120;28;20043;-61
2023/05/03 08:40:35;;;;;;;4.65;2.00;;;12.90;97.80;;;;;;5096975;28;20051;-62
2023/05/03 08:43:08;;;;;;;3.65;2.25;;;13.20;97.70;;;;;;5114310;28;20368;-62
2023/05/03 08:45:35;;;;;;;4.25;2.53;;;13.50;97.20;;;;;;5114871;28;20504;-62
2023/05/03 08:48:03;;;;;;;3.88;2.00;;;13.60;97.40;;;;;;5114354;28;20051;-63
2023/05/03 08:50:30;;;;;;;4.72;2.30;;;13.70;97.20;;;;;;5114443;28;20100;-63
2023/05/03 08:52:58;;;;;;;3.72;2.10;;;13.80;97.20;;;;;;5113806;28;20055;-61
2023/05/03 08:55:24;;;;;;;3.92;2.05;;;13.80;96.80;;;;;;5114447;28;20078;-61
2023/05/03 08:57:50;;;;;;;5.78;2.67;;;13.80;96.50;;;;;;5114309;28;20055;-62
2023/05/03 09:00:18;;;;;;;4.10;2.20;;;13.60;96.30;;;;;;5114490;28;20047;-62
2023/05/03 09:02:44;;;;;;;5.93;2.83;;;13.70;96.60;;;;;;5113088;28;20376;-62
2023/05/03 09:05:14;;;;;;;3.67;2.05;;;13.80;96.70;;;;;;5114124;28;20040;-62
2023/05/03 09:08:02;;;;;;;4.82;2.58;;;13.70;96.30;;;;;;5113997;28;20053;-62
2023/05/03 09:10:29;;;;;;;3.75;2.25;;;13.80;96.30;;;;;;5096194;28;20429;-62
2023/05/03 09:13:01;;;;;;;4.18;2.22;;;13.80;96.40;;;;;;5113406;28;20062;-62
2023/05/03 09:15:29;;;;;;;3.78;2.00;;;14.00;96.40;;;;;;5114302;28;20104;-62
2023/05/03 09:18:12;;;;;;;4.40;2.33;;;13.90;95.90;;;;;;5096098;28;20124;-62
2023/05/03 09:20:40;;;;;;;;;;;13.90;96.30;;;;;;5114475;28;20056;-62
2023/05/03 09:23:09;;;;;;;3.65;2.00;;;14.00;96.30;;;;;;5113335;28;19930;-62
2023/05/03 09:25:50;;;;;;;4.28;2.30;;;14.10;95.50;;;;;;5113404;28;20051;-61
2023/05/03 09:28:17;;;;;;;3.88;2.45;;;14.10;96.00;;;;;;5095692;28;20063;-62
2023/05/03 09:30:44;;;;;;;4.22;2.30;;;14.30;96.20;;;;;;5113852;28;20054;-61
2023/05/03 09:33:10;;;;;;;4.30;2.20;;;14.30;96.20;;;;;;5112879;28;20463;-61
2023/05/03 09:35:38;;;;;;;3.60;3.30;;;14.30;95.90;;;;;;5113653;28;20278;-60
2023/05/03 09:38:04;;;;;;;4.47;2.33;;;14.10;95.80;;;;;;5113990;28;20089;-61
2023/05/03 09:40:31;;;;;;;4.53;2.25;;;14.20;95.90;;;;;;5114115;28;20052;-60
2023/05/03 09:43:10;;;;;;;2.67;2.10;;;14.20;95.60;;;;;;5112913;28;20421;-63
2023/05/03 09:45:37;;;;;;;4.00;2.10;;;14.20;95.00;;;;;;5113849;28;20055;-61
2023/05/03 09:48:06;;;;;;;4.18;2.50;;;14.10;95.50;;;;;;5113890;28;20059;-61
2023/05/03 09:50:33;;;;;;;4.93;2.40;;;13.90;95.60;;;;;;5113522;28;20043;-61
2023/05/03 09:53:02;;;;;;;4.97;2.17;;;13.80;95.90;;;;;;5113004;28;20047;-61
2023/05/03 09:55:38;;;;;;;6.88;2.10;;;13.90;96.00;;;;;;5113540;28;20056;-60
2023/05/03 09:58:05;;;;;;;5.00;2.30;;;14.00;95.60;;;;;;5114157;28;20043;-61
2023/05/03 10:00:40;;;;;;;3.55;2.28;;;14.10;95.70;;;;;;5114076;28;20040;-60
2023/05/03 10:03:17;;;;;;;4.13;2.47;;;14.30;95.20;;;;;;5112922;28;20047;-61
2023/05/03 10:05:48;;;;;;;3.45;2.30;;;14.40;95.30;;;;;;5113764;28;20112;-61
2023/05/03 10:08:39;;;;;;;4.65;2.60;;;14.20;95.30;;;;;;5095657;28;20073;-60
2023/05/03 10:11:07;;;;;;;3.33;2.50;;;14.00;95.10;;;;;;5113005;28;20044;-63
2023/05/03 10:13:35;;;;;;;3.90;2.35;;;14.00;95.70;;;;;;5112637;28;20476;-61
2023/05/03 10:16:05;;;;;;;4.03;2.30;;;13.90;95.80;;;;;;5095933;28;20441;-61
2023/05/03 10:18:36;;;;;;;2.72;1.92;;;14.10;95.10;;;;;;5113594;28;20044;-60
2023/05/03 10:21:13;;;;;;;3.85;2.25;;;14.10;95.00;;;;;;5113395;28;20487;-61
2023/05/03 10:24:08;;;;;;;3.55;2.45;;;14.20;95.20;;;;;;5112904;28;20074;-61
2023/05/03 10:26:34;;;;;;;5.18;2.47;;;14.00;94.60;;;;;;5113463;28;20055;-61
2023/05/03 10:29:00;;;;;;;3.65;2.50;;;14.20;95.40;;;;;;5113514;28;20100;-61
2023/05/03 10:31:46;;;;;;;4.70;2.63;;;14.30;94.90;;;;;;5112789;28;20059;-61
2023/05/03 10:34:23;;;;;;;3.03;2.42;;;14.20;95.00;;;;;;5113056;28;20125;-61
2023/05/03 10:36:54;;;;;;;5.25;2.53;;;14.10;94.70;;;;;;5096145;28;20044;-61
2023/05/03 10:39:21;;;;;;;3.55;2.30;;;14.20;95.50;;;;;;5117064;28;20058;-61
2023/05/03 10:42:07;;;;;;;5.07;2.42;;;14.40;95.50;;;;;;5116631;28;20070;-61
2023/05/03 10:44:33;;;;;;;3.38;2.63;;;14.40;94.90;;;;;;5096839;28;20044;-61
2023/05/03 10:47:10;;;;;;;5.18;2.67;;;14.30;94.50;;;;;;5096441;28;20063;-61
2023/05/03 10:49:36;;;;;;;4.60;3.13;;;14.10;95.00;;;;;;5096262;28;20124;-61
2023/05/03 10:52:22;;;;;;;5.05;2.97;;;14.00;95.30;;;;;;5097429;28;20101;-61
2023/05/03 10:54:48;;;;;;;4.32;2.50;;;14.20;95.30;;;;;;5116336;28;20051;-61
2023/05/03 10:57:15;;;;;;;4.00;2.63;;;14.30;95.10;;;;;;5116480;28;20073;-62
2023/05/03 10:59:50;;;;;;;4.85;2.95;;;14.40;94.90;;;;;;5116925;28;20055;-61
2023/05/03 11:02:25;;;;;;;4.88;2.70;;;14.20;94.70;;;;;;5098115;28;20105;-60
2023/05/03 11:04:55;;;;;;;4.38;2.75;;;14.20;94.80;;;;;;5116387;28;20047;-61
2023/05/03 11:07:21;;;;;;;4.60;2.72;;;14.30;95.00;;;;;;5116576;28;20058;-61
2023/05/03 11:09:47;;;;;;;6.28;3.08;;;14.40;95.00;;;;;;5116448;28;20044;-61
2023/05/03 11:12:13;;;;;;;3.88;2.55;;;14.50;94.90;;;;;;5098024;28;20055;-61
2023/05/03 11:14:41;;;;;;;7.10;3.08;;;14.60;94.90;;;;;;5116375;28;20124;-61
2023/05/03 11:17:08;;;;;;;3.97;3.30;;;14.60;95.40;;;;;;5116323;28;20048;-61
2023/05/03 11:19:34;;;;;;;6.22;2.90;;;14.70;95.30;;;;;;5116346;28;20062;-61
2023/05/03 11:22:01;;;;;;;6.10;3.17;;;14.60;95.50;;;;;;5115750;28;20052;-62
2023/05/03 11:24:27;;;;;;;5.85;3.63;;;14.80;95.50;;;;;;5116192;28;20044;-61
2023/05/03 11:26:53;;;;;;;6.72;2.90;;;14.80;95.20;;;;;;5115897;28;20108;-61
2023/05/03 11:29:20;;;;;;;5.03;2.92;;;14.90;95.10;;;;;;5115965;28;20059;-61
2023/05/03 11:31:47;;;;;;;3.67;2.80;;;14.80;94.80;;;;;;5115731;28;20104;-61
2023/05/03 11:34:14;;;;;;;4.45;2.80;;;14.80;94.80;;;;;;5115776;28;20044;-61
2023/05/03 11:36:41;;;;;;;4.07;2.92;;;14.80;94.70;;;;;;5098013;28;20052;-61
2023/05/03 11:39:08;;;;;;;5.22;3.03;;;14.80;95.00;;;;;;5116025;28;20052;-61
2023/05/03 11:41:34;;;;;;;6.18;3.17;;;14.80;95.00;;;;;;5115485;28;20088;-61
2023/05/03 11:44:01;;;;;;;4.88;3.30;;;14.80;94.90;;;;;;5115788;28;20396;-62
2023/05/03 11:46:34;;;;;;;5.43;3.10;;;15.00;94.90;;;;;;5115645;28;20048;-62
2023/05/03 11:49:01;;;;;;;3.92;3.03;;;14.90;94.60;;;;;;5115288;28;20048;-62
2023/05/03 11:51:28;;;;;;;4.22;3.13;;;14.90;94.80;;;;;;5115085;28;20063;-62
2023/05/03 11:53:55;;;;;;;4.25;3.15;;;14.80;95.10;;;;;;5080531;28;20044;-62
2023/05/03 11:56:23;;;;;;;6.10;3.08;;;14.90;94.90;;;;;;5115514;28;20039;-62
2023/05/03 11:58:51;;;;;;;4.20;3.80;;;14.90;94.40;;;;;;5115591;28;20359;-62
2023/05/03 12:01:20;;;;;;;3.65;2.85;;;14.70;94.40;;;;;;5114965;28;20470;-62
2023/05/03 12:03:48;;;;;;;4.45;3.08;;;14.90;94.90;;;;;;5115286;28;20039;-62
2023/05/03 12:06:16;;;;;;;4.15;3.17;;;15.10;94.90;;;;;;5115255;28;20463;-62
2023/05/03 12:08:42;;;;;;;4.28;3.03;;;15.20;94.70;;;;;;5115240;28;20043;-62
2023/05/03 12:11:09;;;;;;;4.88;3.20;;;15.20;94.80;;;;;;5115076;28;20110;-62
2023/05/03 12:13:37;;;;;;;4.25;3.08;;;15.40;94.70;;;;;;5115020;28;20055;-62
2023/05/03 12:16:05;;;;;;;5.55;3.85;;;15.20;94.50;;;;;;5115163;28;20414;-62
2023/05/03 12:19:10;;;;;;;4.82;3.78;;;15.40;94.40;;;;;;5115422;28;20138;-62
2023/05/03 12:21:44;;;;;;;4.60;3.38;;;15.50;94.30;;;;;;4995888;28;20215;-62
2023/05/03 12:24:10;;;;;;;3.80;3.38;;;15.40;94.60;;;;;;5012342;28;20467;-62
2023/05/03 12:26:37;;;;;;;3.88;3.47;;;15.60;94.60;;;;;;5055267;28;20391;-62
2023/05/03 12:29:03;;;;;;;5.88;3.83;;;15.80;94.60;;;;;;5094314;28;20368;-62
2023/05/03 12:31:29;;;;;;;4.22;2.75;;;15.90;94.50;;;;;;5094102;28;20044;-62
2023/05/03 12:33:55;;;;;;;5.18;3.60;;;16.00;94.40;;;;;;5110765;28;20051;-62
2023/05/03 12:36:22;;;;;;;4.55;3.25;;;16.10;94.30;;;;;;5114700;28;20051;-62
2023/05/03 12:38:50;;;;;;;5.50;3.75;;;16.00;93.80;;;;;;5114738;28;20074;-63
2023/05/03 12:41:16;;;;;;;4.03;3.28;;;16.10;94.10;;;;;;5114258;28;20081;-62
2023/05/03 12:43:42;;;;;;;4.20;3.80;;;16.20;94.30;;;;;;5114388;28;20048;-62
2023/05/03 12:46:09;;;;;;;4.57;3.50;;;16.10;94.30;;;;;;5114782;28;20332;-62
2023/05/03 12:48:36;;;;;;;3.72;3.30;;;16.00;94.60;;;;;;5114453;28;20043;-62
2023/05/03 12:51:03;;;;;;;5.03;3.67;;;16.20;94.60;;;;;;5114326;28;20052;-62
2023/05/03 12:53:30;;;;;;;4.75;3.45;;;16.00;94.30;;;;;;5114433;28;20473;-62
2023/05/03 12:55:56;;;;;;;6.25;3.13;;;16.10;94.30;;;;;;5114401;28;20059;-62